sensor_id;sensor_type;location;lat;lon;timestamp;P1;durP1;ratioP1;P2;durP2;ratioP2
140;SDS011;65;48.778;9.160;2023-06-14T00:02:17;7.10;;;4.45;;
140;SDS011;65;48.778;9.160;2023-06-14T00:05:03;12.25;;;4.70;;
140;SDS011;65;48.778;9.160;2023-06-14T00:07:51;9.65;;;5.32;;
140;SDS011;65;48.778;9.160;2023-06-14T00:10:38;8.52;;;4.47;;
140;SDS011;65;48.778;9.160;2023-06-14T00:13:26;9.00;;;4.72;;
140;SDS011;65;48.778;9.160;2023-06-14T00:16:12;12.68;;;4.50;;
140;SDS011;65;48.778;9.160;2023-06-14T00:18:58;9.27;;;5.38;;
140;SDS011;65;48.778;9.160;2023-06-14T00:21:44;7.90;;;4.32;;
140;SDS011;65;48.778;9.160;2023-06-14T00:24:30;7.65;;;4.30;;
140;SDS011;65;48.778;9.160;2023-06-14T00:27:16;9.30;;;5.03;;
140;SDS011;65;48.778;9.160;2023-06-14T00:30:02;10.85;;;5.03;;
140;SDS011;65;48.778;9.160;2023-06-14T00:32:48;7.22;;;4.47;;
140;SDS011;65;48.778;9.160;2023-06-14T00:35:34;7.07;;;4.47;;
140;SDS011;65;48.778;9.160;2023-06-14T00:38:20;7.90;;;4.65;;
140;SDS011;65;48.778;9.160;2023-06-14T00:41:06;7.15;;;4.88;;
140;SDS011;65;48.778;9.160;2023-06-14T00:43:52;7.50;;;4.28;;
140;SDS011;65;48.778;9.160;2023-06-14T00:46:38;8.45;;;4.47;;
140;SDS011;65;48.778;9.160;2023-06-14T00:49:24;7.38;;;4.88;;
140;SDS011;65;48.778;9.160;2023-06-14T00:52:10;7.78;;;4.78;;
140;SDS011;65;48.778;9.160;2023-06-14T00:54:57;8.85;;;5.13;;
140;SDS011;65;48.778;9.160;2023-06-14T00:57:44;9.98;;;4.95;;
140;SDS011;65;48.778;9.160;2023-06-14T01:00:30;9.10;;;4.43;;
140;SDS011;65;48.778;9.160;2023-06-14T01:03:16;9.68;;;4.80;;
140;SDS011;65;48.778;9.160;2023-06-14T01:09:16;9.27;;;4.90;;
140;SDS011;65;48.778;9.160;2023-06-14T01:12:11;7.30;;;4.25;;
140;SDS011;65;48.778;9.160;2023-06-14T01:15:01;7.95;;;4.68;;
140;SDS011;65;48.778;9.160;2023-06-14T01:17:51;7.32;;;4.53;;
140;SDS011;65;48.778;9.160;2023-06-14T01:20:37;13.23;;;5.05;;
140;SDS011;65;48.778;9.160;2023-06-14T01:23:23;7.47;;;4.57;;
140;SDS011;65;48.778;9.160;2023-06-14T01:26:09;7.85;;;4.30;;
140;SDS011;65;48.778;9.160;2023-06-14T01:28:55;8.23;;;4.53;;
140;SDS011;65;48.778;9.160;2023-06-14T01:31:43;10.15;;;4.85;;
140;SDS011;65;48.778;9.160;2023-06-14T01:34:30;9.48;;;5.05;;
140;SDS011;65;48.778;9.160;2023-06-14T01:37:16;6.80;;;4.15;;
140;SDS011;65;48.778;9.160;2023-06-14T01:40:04;8.75;;;4.70;;
140;SDS011;65;48.778;9.160;2023-06-14T01:42:52;7.55;;;4.60;;
140;SDS011;65;48.778;9.160;2023-06-14T01:45:38;8.75;;;4.25;;
140;SDS011;65;48.778;9.160;2023-06-14T01:48:26;10.52;;;4.60;;
140;SDS011;65;48.778;9.160;2023-06-14T01:51:12;10.85;;;5.13;;
140;SDS011;65;48.778;9.160;2023-06-14T01:53:58;10.38;;;5.40;;
140;SDS011;65;48.778;9.160;2023-06-14T01:56:45;9.45;;;4.88;;
140;SDS011;65;48.778;9.160;2023-06-14T01:59:31;8.10;;;5.20;;
140;SDS011;65;48.778;9.160;2023-06-14T02:02:16;9.75;;;4.68;;
140;SDS011;65;48.778;9.160;2023-06-14T02:05:02;11.35;;;5.10;;
140;SDS011;65;48.778;9.160;2023-06-14T02:07:49;7.72;;;4.80;;
140;SDS011;65;48.778;9.160;2023-06-14T02:10:35;8.80;;;5.13;;
140;SDS011;65;48.778;9.160;2023-06-14T02:13:21;8.30;;;4.82;;
140;SDS011;65;48.778;9.160;2023-06-14T02:16:07;9.50;;;4.60;;
140;SDS011;65;48.778;9.160;2023-06-14T02:18:53;6.65;;;4.47;;
140;SDS011;65;48.778;9.160;2023-06-14T02:21:38;11.10;;;4.68;;
140;SDS011;65;48.778;9.160;2023-06-14T02:24:24;9.50;;;5.20;;
140;SDS011;65;48.778;9.160;2023-06-14T02:27:10;7.65;;;4.80;;
140;SDS011;65;48.778;9.160;2023-06-14T02:29:56;7.93;;;5.03;;
140;SDS011;65;48.778;9.160;2023-06-14T02:32:41;10.50;;;4.72;;
140;SDS011;65;48.778;9.160;2023-06-14T02:35:29;8.02;;;4.95;;
140;SDS011;65;48.778;9.160;2023-06-14T02:38:15;10.05;;;4.95;;
140;SDS011;65;48.778;9.160;2023-06-14T02:41:01;9.02;;;4.85;;
140;SDS011;65;48.778;9.160;2023-06-14T02:43:47;9.73;;;5.00;;
140;SDS011;65;48.778;9.160;2023-06-14T02:46:33;9.73;;;4.88;;
140;SDS011;65;48.778;9.160;2023-06-14T02:49:19;7.88;;;4.88;;
140;SDS011;65;48.778;9.160;2023-06-14T02:52:04;11.50;;;5.28;;
140;SDS011;65;48.778;9.160;2023-06-14T02:54:51;7.15;;;4.65;;
140;SDS011;65;48.778;9.160;2023-06-14T02:57:37;8.68;;;5.30;;
140;SDS011;65;48.778;9.160;2023-06-14T03:00:23;9.90;;;5.15;;
140;SDS011;65;48.778;9.160;2023-06-14T03:03:09;9.15;;;5.05;;
140;SDS011;65;48.778;9.160;2023-06-14T03:05:59;8.55;;;5.10;;
140;SDS011;65;48.778;9.160;2023-06-14T03:08:51;9.85;;;4.88;;
140;SDS011;65;48.778;9.160;2023-06-14T03:11:40;7.95;;;5.22;;
140;SDS011;65;48.778;9.160;2023-06-14T03:14:26;8.77;;;4.93;;
140;SDS011;65;48.778;9.160;2023-06-14T03:17:12;8.00;;;4.80;;
140;SDS011;65;48.778;9.160;2023-06-14T03:19:58;9.30;;;4.85;;
140;SDS011;65;48.778;9.160;2023-06-14T03:22:43;9.35;;;5.20;;
140;SDS011;65;48.778;9.160;2023-06-14T03:25:31;7.47;;;4.80;;
140;SDS011;65;48.778;9.160;2023-06-14T03:28:18;11.77;;;4.63;;
140;SDS011;65;48.778;9.160;2023-06-14T03:31:04;8.10;;;5.07;;
140;SDS011;65;48.778;9.160;2023-06-14T03:33:49;7.40;;;4.75;;
140;SDS011;65;48.778;9.160;2023-06-14T03:36:35;7.75;;;4.80;;
140;SDS011;65;48.778;9.160;2023-06-14T03:39:21;9.52;;;4.63;;
140;SDS011;65;48.778;9.160;2023-06-14T03:42:07;9.52;;;4.90;;
140;SDS011;65;48.778;9.160;2023-06-14T03:44:53;8.70;;;4.80;;
140;SDS011;65;48.778;9.160;2023-06-14T03:47:38;9.55;;;5.65;;
140;SDS011;65;48.778;9.160;2023-06-14T03:50:24;8.25;;;5.00;;
140;SDS011;65;48.778;9.160;2023-06-14T03:53:10;6.80;;;4.57;;
140;SDS011;65;48.778;9.160;2023-06-14T03:55:56;13.50;;;5.00;;
140;SDS011;65;48.778;9.160;2023-06-14T03:58:42;8.82;;;5.10;;
140;SDS011;65;48.778;9.160;2023-06-14T04:01:28;10.75;;;5.13;;
140;SDS011;65;48.778;9.160;2023-06-14T04:04:15;9.55;;;5.40;;
140;SDS011;65;48.778;9.160;2023-06-14T04:07:04;10.60;;;5.10;;
140;SDS011;65;48.778;9.160;2023-06-14T04:09:50;11.07;;;5.65;;
140;SDS011;65;48.778;9.160;2023-06-14T04:12:35;11.75;;;6.00;;
140;SDS011;65;48.778;9.160;2023-06-14T04:15:21;8.02;;;5.18;;
140;SDS011;65;48.778;9.160;2023-06-14T04:18:07;11.55;;;5.35;;
140;SDS011;65;48.778;9.160;2023-06-14T04:20:53;8.32;;;5.38;;
140;SDS011;65;48.778;9.160;2023-06-14T04:23:39;9.75;;;5.15;;
140;SDS011;65;48.778;9.160;2023-06-14T04:26:29;9.20;;;5.10;;
140;SDS011;65;48.778;9.160;2023-06-14T04:29:15;7.05;;;5.03;;
140;SDS011;65;48.778;9.160;2023-06-14T04:32:01;9.80;;;5.10;;
140;SDS011;65;48.778;9.160;2023-06-14T04:34:47;10.10;;;5.32;;
140;SDS011;65;48.778;9.160;2023-06-14T04:37:32;9.82;;;5.75;;
140;SDS011;65;48.778;9.160;2023-06-14T04:40:18;8.73;;;5.47;;
140;SDS011;65;48.778;9.160;2023-06-14T04:43:04;10.07;;;5.65;;
140;SDS011;65;48.778;9.160;2023-06-14T04:45:50;14.38;;;5.32;;
140;SDS011;65;48.778;9.160;2023-06-14T04:48:37;7.57;;;4.60;;
140;SDS011;65;48.778;9.160;2023-06-14T04:51:26;9.77;;;5.63;;
140;SDS011;65;48.778;9.160;2023-06-14T04:54:14;7.75;;;4.88;;
140;SDS011;65;48.778;9.160;2023-06-14T04:57:00;11.18;;;5.15;;
140;SDS011;65;48.778;9.160;2023-06-14T04:59:47;7.65;;;5.00;;
140;SDS011;65;48.778;9.160;2023-06-14T05:02:33;8.10;;;4.80;;
140;SDS011;65;48.778;9.160;2023-06-14T05:05:19;10.00;;;5.22;;
140;SDS011;65;48.778;9.160;2023-06-14T05:08:06;8.85;;;5.47;;
140;SDS011;65;48.778;9.160;2023-06-14T05:10:52;8.82;;;5.18;;
140;SDS011;65;48.778;9.160;2023-06-14T05:13:38;11.00;;;5.53;;
140;SDS011;65;48.778;9.160;2023-06-14T05:16:25;8.00;;;5.10;;
140;SDS011;65;48.778;9.160;2023-06-14T05:19:12;7.93;;;5.20;;
140;SDS011;65;48.778;9.160;2023-06-14T05:21:58;12.27;;;4.90;;
140;SDS011;65;48.778;9.160;2023-06-14T05:24:44;7.45;;;4.95;;
140;SDS011;65;48.778;9.160;2023-06-14T05:27:31;10.95;;;5.40;;
140;SDS011;65;48.778;9.160;2023-06-14T05:30:17;8.68;;;4.95;;
140;SDS011;65;48.778;9.160;2023-06-14T05:33:02;9.18;;;5.07;;
140;SDS011;65;48.778;9.160;2023-06-14T05:35:49;9.40;;;4.97;;
140;SDS011;65;48.778;9.160;2023-06-14T05:38:35;9.00;;;5.07;;
140;SDS011;65;48.778;9.160;2023-06-14T05:41:21;10.82;;;5.07;;
140;SDS011;65;48.778;9.160;2023-06-14T05:44:06;9.15;;;4.72;;
140;SDS011;65;48.778;9.160;2023-06-14T05:46:54;7.25;;;4.80;;
140;SDS011;65;48.778;9.160;2023-06-14T05:49:40;10.05;;;5.10;;
140;SDS011;65;48.778;9.160;2023-06-14T05:52:25;10.40;;;5.10;;
140;SDS011;65;48.778;9.160;2023-06-14T05:55:11;8.02;;;5.10;;
140;SDS011;65;48.778;9.160;2023-06-14T05:57:57;9.90;;;5.05;;
140;SDS011;65;48.778;9.160;2023-06-14T06:00:43;9.32;;;4.95;;
140;SDS011;65;48.778;9.160;2023-06-14T06:03:29;9.57;;;4.88;;
140;SDS011;65;48.778;9.160;2023-06-14T06:06:14;7.82;;;4.95;;
140;SDS011;65;48.778;9.160;2023-06-14T06:09:01;8.45;;;4.75;;
140;SDS011;65;48.778;9.160;2023-06-14T06:11:48;7.55;;;4.72;;
140;SDS011;65;48.778;9.160;2023-06-14T06:14:33;11.00;;;4.65;;
140;SDS011;65;48.778;9.160;2023-06-14T06:17:19;9.57;;;5.00;;
140;SDS011;65;48.778;9.160;2023-06-14T06:20:05;7.43;;;5.13;;
140;SDS011;65;48.778;9.160;2023-06-14T06:22:53;9.13;;;4.90;;
140;SDS011;65;48.778;9.160;2023-06-14T06:25:39;7.97;;;4.90;;
140;SDS011;65;48.778;9.160;2023-06-14T06:28:25;9.45;;;4.68;;
140;SDS011;65;48.778;9.160;2023-06-14T06:31:11;11.27;;;4.85;;
140;SDS011;65;48.778;9.160;2023-06-14T06:33:57;8.65;;;4.70;;
140;SDS011;65;48.778;9.160;2023-06-14T06:36:43;9.85;;;5.20;;
140;SDS011;65;48.778;9.160;2023-06-14T06:39:28;7.45;;;4.55;;
140;SDS011;65;48.778;9.160;2023-06-14T06:42:14;10.32;;;4.95;;
140;SDS011;65;48.778;9.160;2023-06-14T06:45:00;7.93;;;4.95;;
140;SDS011;65;48.778;9.160;2023-06-14T06:47:48;8.73;;;4.93;;
140;SDS011;65;48.778;9.160;2023-06-14T06:50:35;13.88;;;4.68;;
140;SDS011;65;48.778;9.160;2023-06-14T06:53:22;11.55;;;5.90;;
140;SDS011;65;48.778;9.160;2023-06-14T06:56:07;7.72;;;4.97;;
140;SDS011;65;48.778;9.160;2023-06-14T06:58:53;8.38;;;5.15;;
140;SDS011;65;48.778;9.160;2023-06-14T07:01:39;12.15;;;5.32;;
140;SDS011;65;48.778;9.160;2023-06-14T07:04:25;12.18;;;4.90;;
140;SDS011;65;48.778;9.160;2023-06-14T07:07:10;15.07;;;5.60;;
140;SDS011;65;48.778;9.160;2023-06-14T07:09:56;9.82;;;4.50;;
140;SDS011;65;48.778;9.160;2023-06-14T07:12:42;11.65;;;5.15;;
140;SDS011;65;48.778;9.160;2023-06-14T07:15:28;9.13;;;5.75;;
140;SDS011;65;48.778;9.160;2023-06-14T07:18:14;9.45;;;4.75;;
140;SDS011;65;48.778;9.160;2023-06-14T07:20:59;9.23;;;5.15;;
140;SDS011;65;48.778;9.160;2023-06-14T07:23:46;10.50;;;4.78;;
140;SDS011;65;48.778;9.160;2023-06-14T07:26:32;9.77;;;4.57;;
140;SDS011;65;48.778;9.160;2023-06-14T07:29:17;11.00;;;4.88;;
140;SDS011;65;48.778;9.160;2023-06-14T07:32:03;7.10;;;4.68;;
140;SDS011;65;48.778;9.160;2023-06-14T07:34:50;6.57;;;4.15;;
140;SDS011;65;48.778;9.160;2023-06-14T07:37:35;8.63;;;4.40;;
140;SDS011;65;48.778;9.160;2023-06-14T07:40:21;8.70;;;4.40;;
140;SDS011;65;48.778;9.160;2023-06-14T07:43:07;9.30;;;4.25;;
140;SDS011;65;48.778;9.160;2023-06-14T07:45:53;7.05;;;4.45;;
140;SDS011;65;48.778;9.160;2023-06-14T07:48:38;9.55;;;4.45;;
140;SDS011;65;48.778;9.160;2023-06-14T07:51:24;6.57;;;4.40;;
140;SDS011;65;48.778;9.160;2023-06-14T07:54:10;7.53;;;4.50;;
140;SDS011;65;48.778;9.160;2023-06-14T07:56:56;7.80;;;4.30;;
140;SDS011;65;48.778;9.160;2023-06-14T07:59:42;7.40;;;4.82;;
140;SDS011;65;48.778;9.160;2023-06-14T08:02:28;8.57;;;4.32;;
140;SDS011;65;48.778;9.160;2023-06-14T08:05:13;9.35;;;4.40;;
140;SDS011;65;48.778;9.160;2023-06-14T08:07:59;11.20;;;4.88;;
140;SDS011;65;48.778;9.160;2023-06-14T08:10:45;10.35;;;4.65;;
140;SDS011;65;48.778;9.160;2023-06-14T08:13:31;9.82;;;4.78;;
140;SDS011;65;48.778;9.160;2023-06-14T08:16:17;12.60;;;4.65;;
140;SDS011;65;48.778;9.160;2023-06-14T08:19:03;10.27;;;4.65;;
140;SDS011;65;48.778;9.160;2023-06-14T08:21:48;6.85;;;4.65;;
140;SDS011;65;48.778;9.160;2023-06-14T08:24:35;8.82;;;4.93;;
140;SDS011;65;48.778;9.160;2023-06-14T08:27:21;11.38;;;4.90;;
140;SDS011;65;48.778;9.160;2023-06-14T08:30:08;11.35;;;5.20;;
140;SDS011;65;48.778;9.160;2023-06-14T08:32:55;9.82;;;4.97;;
140;SDS011;65;48.778;9.160;2023-06-14T08:35:41;13.80;;;5.28;;
140;SDS011;65;48.778;9.160;2023-06-14T08:38:27;8.82;;;4.85;;
140;SDS011;65;48.778;9.160;2023-06-14T08:41:13;12.90;;;5.40;;
140;SDS011;65;48.778;9.160;2023-06-14T08:44:06;8.27;;;4.55;;
140;SDS011;65;48.778;9.160;2023-06-14T08:46:52;9.20;;;4.40;;
140;SDS011;65;48.778;9.160;2023-06-14T08:49:42;11.27;;;4.80;;
140;SDS011;65;48.778;9.160;2023-06-14T08:52:34;8.13;;;4.65;;
140;SDS011;65;48.778;9.160;2023-06-14T08:55:31;11.55;;;4.90;;
140;SDS011;65;48.778;9.160;2023-06-14T08:58:18;8.32;;;4.57;;
140;SDS011;65;48.778;9.160;2023-06-14T09:01:04;9.45;;;4.53;;
140;SDS011;65;48.778;9.160;2023-06-14T09:03:52;7.07;;;4.30;;
140;SDS011;65;48.778;9.160;2023-06-14T09:06:40;8.68;;;4.43;;
140;SDS011;65;48.778;9.160;2023-06-14T09:09:26;10.80;;;4.18;;
140;SDS011;65;48.778;9.160;2023-06-14T09:12:12;8.93;;;4.55;;
140;SDS011;65;48.778;9.160;2023-06-14T09:14:58;10.23;;;4.50;;
140;SDS011;65;48.778;9.160;2023-06-14T09:17:43;8.77;;;4.72;;
140;SDS011;65;48.778;9.160;2023-06-14T09:20:29;8.63;;;4.30;;
140;SDS011;65;48.778;9.160;2023-06-14T09:23:20;9.30;;;4.93;;
140;SDS011;65;48.778;9.160;2023-06-14T09:26:11;11.93;;;4.32;;
140;SDS011;65;48.778;9.160;2023-06-14T09:29:01;7.95;;;4.47;;
140;SDS011;65;48.778;9.160;2023-06-14T09:31:46;11.65;;;4.88;;
140;SDS011;65;48.778;9.160;2023-06-14T09:34:33;10.02;;;4.43;;
140;SDS011;65;48.778;9.160;2023-06-14T09:37:27;6.82;;;3.83;;
140;SDS011;65;48.778;9.160;2023-06-14T09:40:14;7.45;;;4.50;;
140;SDS011;65;48.778;9.160;2023-06-14T09:43:06;7.45;;;4.90;;
140;SDS011;65;48.778;9.160;2023-06-14T09:45:55;19.95;;;5.93;;
140;SDS011;65;48.778;9.160;2023-06-14T09:48:41;8.50;;;4.90;;
140;SDS011;65;48.778;9.160;2023-06-14T09:51:28;11.75;;;4.45;;
140;SDS011;65;48.778;9.160;2023-06-14T09:54:18;11.10;;;4.22;;
140;SDS011;65;48.778;9.160;2023-06-14T09:57:08;8.82;;;4.22;;
140;SDS011;65;48.778;9.160;2023-06-14T09:59:57;7.18;;;4.47;;
140;SDS011;65;48.778;9.160;2023-06-14T10:02:45;11.75;;;4.72;;
140;SDS011;65;48.778;9.160;2023-06-14T10:05:39;6.68;;;3.95;;
140;SDS011;65;48.778;9.160;2023-06-14T10:08:31;9.70;;;4.20;;
140;SDS011;65;48.778;9.160;2023-06-14T10:11:20;7.70;;;4.40;;
140;SDS011;65;48.778;9.160;2023-06-14T10:14:07;12.50;;;4.38;;
140;SDS011;65;48.778;9.160;2023-06-14T10:20:37;11.55;;;4.30;;
140;SDS011;65;48.778;9.160;2023-06-14T10:23:06;7.95;;;4.47;;
140;SDS011;65;48.778;9.160;2023-06-14T10:25:56;9.02;;;4.47;;
140;SDS011;65;48.778;9.160;2023-06-14T10:28:43;10.85;;;4.30;;
140;SDS011;65;48.778;9.160;2023-06-14T10:31:43;9.10;;;4.68;;
140;SDS011;65;48.778;9.160;2023-06-14T10:34:38;11.15;;;4.78;;
140;SDS011;65;48.778;9.160;2023-06-14T10:37:24;14.80;;;5.03;;
140;SDS011;65;48.778;9.160;2023-06-14T10:40:10;6.85;;;4.60;;
140;SDS011;65;48.778;9.160;2023-06-14T10:43:22;11.98;;;4.53;;
140;SDS011;65;48.778;9.160;2023-06-14T10:46:15;7.50;;;4.50;;
140;SDS011;65;48.778;9.160;2023-06-14T10:49:02;12.75;;;4.78;;
140;SDS011;65;48.778;9.160;2023-06-14T10:51:51;9.23;;;4.40;;
140;SDS011;65;48.778;9.160;2023-06-14T10:54:55;11.40;;;4.57;;
140;SDS011;65;48.778;9.160;2023-06-14T10:57:51;7.85;;;4.30;;
140;SDS011;65;48.778;9.160;2023-06-14T11:00:44;11.45;;;4.22;;
140;SDS011;65;48.778;9.160;2023-06-14T11:03:36;9.00;;;4.20;;
140;SDS011;65;48.778;9.160;2023-06-14T11:06:46;10.10;;;4.20;;
140;SDS011;65;48.778;9.160;2023-06-14T11:12:35;9.52;;;4.53;;
140;SDS011;65;48.778;9.160;2023-06-14T11:15:29;11.15;;;4.40;;
140;SDS011;65;48.778;9.160;2023-06-14T11:18:18;10.20;;;4.60;;
140;SDS011;65;48.778;9.160;2023-06-14T11:21:04;10.75;;;3.88;;
140;SDS011;65;48.778;9.160;2023-06-14T11:23:50;11.15;;;4.00;;
140;SDS011;65;48.778;9.160;2023-06-14T11:26:37;8.63;;;4.15;;
140;SDS011;65;48.778;9.160;2023-06-14T11:29:23;7.45;;;4.22;;
140;SDS011;65;48.778;9.160;2023-06-14T11:32:09;9.20;;;4.00;;
140;SDS011;65;48.778;9.160;2023-06-14T11:34:57;10.02;;;4.18;;
140;SDS011;65;48.778;9.160;2023-06-14T11:37:44;9.52;;;4.35;;
140;SDS011;65;48.778;9.160;2023-06-14T11:40:30;8.93;;;3.95;;
140;SDS011;65;48.778;9.160;2023-06-14T11:43:16;8.73;;;4.03;;
140;SDS011;65;48.778;9.160;2023-06-14T11:46:02;12.32;;;4.50;;
140;SDS011;65;48.778;9.160;2023-06-14T11:48:48;10.40;;;4.35;;
140;SDS011;65;48.778;9.160;2023-06-14T11:51:34;6.25;;;3.78;;
140;SDS011;65;48.778;9.160;2023-06-14T11:54:22;7.88;;;3.95;;
140;SDS011;65;48.778;9.160;2023-06-14T11:57:08;6.75;;;4.00;;
140;SDS011;65;48.778;9.160;2023-06-14T11:59:54;9.63;;;4.28;;
140;SDS011;65;48.778;9.160;2023-06-14T12:02:40;8.80;;;4.70;;
140;SDS011;65;48.778;9.160;2023-06-14T12:05:27;13.30;;;5.07;;
140;SDS011;65;48.778;9.160;2023-06-14T12:08:13;9.68;;;4.03;;
140;SDS011;65;48.778;9.160;2023-06-14T12:11:02;8.90;;;3.97;;
140;SDS011;65;48.778;9.160;2023-06-14T12:13:48;9.85;;;4.22;;
140;SDS011;65;48.778;9.160;2023-06-14T12:16:35;11.13;;;4.10;;
140;SDS011;65;48.778;9.160;2023-06-14T12:19:25;9.15;;;3.88;;
140;SDS011;65;48.778;9.160;2023-06-14T12:22:14;14.23;;;4.20;;
140;SDS011;65;48.778;9.160;2023-06-14T12:25:00;14.70;;;4.18;;
140;SDS011;65;48.778;9.160;2023-06-14T12:27:48;9.07;;;4.07;;
140;SDS011;65;48.778;9.160;2023-06-14T12:30:35;8.05;;;4.22;;
140;SDS011;65;48.778;9.160;2023-06-14T12:33:21;12.30;;;4.25;;
140;SDS011;65;48.778;9.160;2023-06-14T12:36:08;11.77;;;4.50;;
140;SDS011;65;48.778;9.160;2023-06-14T12:38:55;9.40;;;4.00;;
140;SDS011;65;48.778;9.160;2023-06-14T12:41:40;10.23;;;4.20;;
140;SDS011;65;48.778;9.160;2023-06-14T12:44:27;11.25;;;4.65;;
140;SDS011;65;48.778;9.160;2023-06-14T12:47:12;11.15;;;4.20;;
140;SDS011;65;48.778;9.160;2023-06-14T12:49:58;12.05;;;3.97;;
140;SDS011;65;48.778;9.160;2023-06-14T12:52:44;7.47;;;4.00;;
140;SDS011;65;48.778;9.160;2023-06-14T12:55:30;16.20;;;4.03;;
140;SDS011;65;48.778;9.160;2023-06-14T12:58:15;17.48;;;4.32;;
140;SDS011;65;48.778;9.160;2023-06-14T13:01:02;9.18;;;4.82;;
140;SDS011;65;48.778;9.160;2023-06-14T13:03:48;11.00;;;4.30;;
140;SDS011;65;48.778;9.160;2023-06-14T13:06:36;10.77;;;3.90;;
140;SDS011;65;48.778;9.160;2023-06-14T13:09:22;7.53;;;4.03;;
140;SDS011;65;48.778;9.160;2023-06-14T13:12:08;14.48;;;4.25;;
140;SDS011;65;48.778;9.160;2023-06-14T13:14:59;10.15;;;4.15;;
140;SDS011;65;48.778;9.160;2023-06-14T13:17:45;7.80;;;3.90;;
140;SDS011;65;48.778;9.160;2023-06-14T13:20:33;8.23;;;4.15;;
140;SDS011;65;48.778;9.160;2023-06-14T13:23:19;8.65;;;4.00;;
140;SDS011;65;48.778;9.160;2023-06-14T13:26:05;7.30;;;3.75;;
140;SDS011;65;48.778;9.160;2023-06-14T13:28:51;9.60;;;4.10;;
140;SDS011;65;48.778;9.160;2023-06-14T13:31:37;9.43;;;3.97;;
140;SDS011;65;48.778;9.160;2023-06-14T13:34:23;9.15;;;3.90;;
140;SDS011;65;48.778;9.160;2023-06-14T13:37:08;7.18;;;4.28;;
140;SDS011;65;48.778;9.160;2023-06-14T13:39:54;7.53;;;3.83;;
140;SDS011;65;48.778;9.160;2023-06-14T13:42:40;7.28;;;3.83;;
140;SDS011;65;48.778;9.160;2023-06-14T13:45:26;6.55;;;4.00;;
140;SDS011;65;48.778;9.160;2023-06-14T13:48:12;7.07;;;3.65;;
140;SDS011;65;48.778;9.160;2023-06-14T13:50:59;11.18;;;3.80;;
140;SDS011;65;48.778;9.160;2023-06-14T13:53:46;10.32;;;4.43;;
140;SDS011;65;48.778;9.160;2023-06-14T13:56:33;9.38;;;4.28;;
140;SDS011;65;48.778;9.160;2023-06-14T13:59:19;7.85;;;4.00;;
140;SDS011;65;48.778;9.160;2023-06-14T14:02:05;12.68;;;4.40;;
140;SDS011;65;48.778;9.160;2023-06-14T14:04:51;10.65;;;4.03;;
140;SDS011;65;48.778;9.160;2023-06-14T14:07:38;12.35;;;4.18;;
140;SDS011;65;48.778;9.160;2023-06-14T14:10:24;7.32;;;3.85;;
140;SDS011;65;48.778;9.160;2023-06-14T14:13:10;9.98;;;4.53;;
140;SDS011;65;48.778;9.160;2023-06-14T14:15:57;10.18;;;4.43;;
140;SDS011;65;48.778;9.160;2023-06-14T14:18:45;11.80;;;4.22;;
140;SDS011;65;48.778;9.160;2023-06-14T14:21:31;7.28;;;4.07;;
140;SDS011;65;48.778;9.160;2023-06-14T14:24:17;12.32;;;4.20;;
140;SDS011;65;48.778;9.160;2023-06-14T14:27:03;7.97;;;4.00;;
140;SDS011;65;48.778;9.160;2023-06-14T14:29:49;9.90;;;4.40;;
140;SDS011;65;48.778;9.160;2023-06-14T14:32:35;8.00;;;3.83;;
140;SDS011;65;48.778;9.160;2023-06-14T14:35:20;9.77;;;4.35;;
140;SDS011;65;48.778;9.160;2023-06-14T14:38:08;10.10;;;4.50;;
140;SDS011;65;48.778;9.160;2023-06-14T14:40:54;8.50;;;4.22;;
140;SDS011;65;48.778;9.160;2023-06-14T14:43:40;10.77;;;4.53;;
140;SDS011;65;48.778;9.160;2023-06-14T14:46:26;15.70;;;4.38;;
140;SDS011;65;48.778;9.160;2023-06-14T14:49:13;10.93;;;3.85;;
140;SDS011;65;48.778;9.160;2023-06-14T14:51:59;7.70;;;3.95;;
140;SDS011;65;48.778;9.160;2023-06-14T14:54:45;7.22;;;4.45;;
140;SDS011;65;48.778;9.160;2023-06-14T14:57:30;7.43;;;4.22;;
140;SDS011;65;48.778;9.160;2023-06-14T15:00:16;6.97;;;3.63;;
140;SDS011;65;48.778;9.160;2023-06-14T15:03:02;9.15;;;4.25;;
140;SDS011;65;48.778;9.160;2023-06-14T15:05:48;6.68;;;3.80;;
140;SDS011;65;48.778;9.160;2023-06-14T15:08:34;7.55;;;3.97;;
140;SDS011;65;48.778;9.160;2023-06-14T15:11:19;10.00;;;4.63;;
140;SDS011;65;48.778;9.160;2023-06-14T15:14:05;7.55;;;4.22;;
140;SDS011;65;48.778;9.160;2023-06-14T15:16:51;7.43;;;3.75;;
140;SDS011;65;48.778;9.160;2023-06-14T15:19:37;7.15;;;4.13;;
140;SDS011;65;48.778;9.160;2023-06-14T15:22:22;6.68;;;3.85;;
140;SDS011;65;48.778;9.160;2023-06-14T15:25:08;8.00;;;3.92;;
140;SDS011;65;48.778;9.160;2023-06-14T15:27:54;8.00;;;4.40;;
140;SDS011;65;48.778;9.160;2023-06-14T15:30:40;11.98;;;4.72;;
140;SDS011;65;48.778;9.160;2023-06-14T15:33:26;9.07;;;4.03;;
140;SDS011;65;48.778;9.160;2023-06-14T15:36:12;10.05;;;4.00;;
140;SDS011;65;48.778;9.160;2023-06-14T15:38:58;11.73;;;4.93;;
140;SDS011;65;48.778;9.160;2023-06-14T15:41:43;11.15;;;4.20;;
140;SDS011;65;48.778;9.160;2023-06-14T15:44:29;10.18;;;4.60;;
140;SDS011;65;48.778;9.160;2023-06-14T15:47:15;7.35;;;4.40;;
140;SDS011;65;48.778;9.160;2023-06-14T15:50:00;8.63;;;4.15;;
140;SDS011;65;48.778;9.160;2023-06-14T15:52:46;13.02;;;4.40;;
140;SDS011;65;48.778;9.160;2023-06-14T15:55:32;7.97;;;4.05;;
140;SDS011;65;48.778;9.160;2023-06-14T15:58:18;10.63;;;4.20;;
140;SDS011;65;48.778;9.160;2023-06-14T16:01:04;8.82;;;4.20;;
140;SDS011;65;48.778;9.160;2023-06-14T16:03:50;9.30;;;4.10;;
140;SDS011;65;48.778;9.160;2023-06-14T16:06:36;12.60;;;3.88;;
140;SDS011;65;48.778;9.160;2023-06-14T16:09:22;7.55;;;3.95;;
140;SDS011;65;48.778;9.160;2023-06-14T16:12:08;8.98;;;4.10;;
140;SDS011;65;48.778;9.160;2023-06-14T16:14:54;6.28;;;4.10;;
140;SDS011;65;48.778;9.160;2023-06-14T16:17:40;7.38;;;3.78;;
140;SDS011;65;48.778;9.160;2023-06-14T16:20:27;8.60;;;4.03;;
140;SDS011;65;48.778;9.160;2023-06-14T16:23:13;7.18;;;3.80;;
140;SDS011;65;48.778;9.160;2023-06-14T16:25:59;7.78;;;4.20;;
140;SDS011;65;48.778;9.160;2023-06-14T16:28:45;9.15;;;4.25;;
140;SDS011;65;48.778;9.160;2023-06-14T16:31:30;10.32;;;4.00;;
140;SDS011;65;48.778;9.160;2023-06-14T16:34:16;9.95;;;4.30;;
140;SDS011;65;48.778;9.160;2023-06-14T16:37:02;8.98;;;4.03;;
140;SDS011;65;48.778;9.160;2023-06-14T16:39:48;7.78;;;4.18;;
140;SDS011;65;48.778;9.160;2023-06-14T16:42:34;6.28;;;4.07;;
140;SDS011;65;48.778;9.160;2023-06-14T16:45:19;7.05;;;4.32;;
140;SDS011;65;48.778;9.160;2023-06-14T16:48:05;6.50;;;4.20;;
140;SDS011;65;48.778;9.160;2023-06-14T16:50:51;9.65;;;4.07;;
140;SDS011;65;48.778;9.160;2023-06-14T16:53:36;8.93;;;3.92;;
140;SDS011;65;48.778;9.160;2023-06-14T16:56:23;7.40;;;4.10;;
140;SDS011;65;48.778;9.160;2023-06-14T16:59:12;8.70;;;4.10;;
140;SDS011;65;48.778;9.160;2023-06-14T17:02:02;8.07;;;4.07;;
140;SDS011;65;48.778;9.160;2023-06-14T17:04:50;9.85;;;4.05;;
140;SDS011;65;48.778;9.160;2023-06-14T17:07:35;7.47;;;4.32;;
140;SDS011;65;48.778;9.160;2023-06-14T17:10:21;6.35;;;4.10;;
140;SDS011;65;48.778;9.160;2023-06-14T17:13:07;10.00;;;4.30;;
140;SDS011;65;48.778;9.160;2023-06-14T17:15:53;8.77;;;4.38;;
140;SDS011;65;48.778;9.160;2023-06-14T17:18:38;11.15;;;3.90;;
140;SDS011;65;48.778;9.160;2023-06-14T17:21:24;6.63;;;3.88;;
140;SDS011;65;48.778;9.160;2023-06-14T17:24:10;7.22;;;4.28;;
140;SDS011;65;48.778;9.160;2023-06-14T17:26:55;9.50;;;4.30;;
140;SDS011;65;48.778;9.160;2023-06-14T17:29:42;6.35;;;4.00;;
140;SDS011;65;48.778;9.160;2023-06-14T17:32:28;8.85;;;4.13;;
140;SDS011;65;48.778;9.160;2023-06-14T17:35:13;7.82;;;3.92;;
140;SDS011;65;48.778;9.160;2023-06-14T17:37:59;7.65;;;3.92;;
140;SDS011;65;48.778;9.160;2023-06-14T17:40:45;6.32;;;4.07;;
140;SDS011;65;48.778;9.160;2023-06-14T17:43:31;6.95;;;4.07;;
140;SDS011;65;48.778;9.160;2023-06-14T17:46:16;7.03;;;3.92;;
140;SDS011;65;48.778;9.160;2023-06-14T17:49:02;8.18;;;4.30;;
140;SDS011;65;48.778;9.160;2023-06-14T17:51:48;8.32;;;4.35;;
140;SDS011;65;48.778;9.160;2023-06-14T17:54:34;6.40;;;4.13;;
140;SDS011;65;48.778;9.160;2023-06-14T17:57:20;9.95;;;4.15;;
140;SDS011;65;48.778;9.160;2023-06-14T18:00:06;8.13;;;4.10;;
140;SDS011;65;48.778;9.160;2023-06-14T18:02:52;8.80;;;4.20;;
140;SDS011;65;48.778;9.160;2023-06-14T18:05:38;6.97;;;4.15;;
140;SDS011;65;48.778;9.160;2023-06-14T18:08:26;8.88;;;4.28;;
140;SDS011;65;48.778;9.160;2023-06-14T18:11:12;6.97;;;4.45;;
140;SDS011;65;48.778;9.160;2023-06-14T18:13:58;9.90;;;4.47;;